CheckWX is a tool to help pilots better visualize weather data.  It is not intended as a substitute for an official pre-flight weather briefing.

00:28:41 UTC

EGTK TAF
Oxford (Kidlington) Airport
Kidlington, United Kingdom
TAF EGTK 201705Z 2018/2103 27012KT 9999 FEW035 PROB30 TEMPO 2018/2019 28015G25KT SHRA

Feb-20@
18:00 UTC

Feb-20 @ 18:00 UTC

Feb-21@
03:00 UTC

Feb-21 @ 03:00 UTC

TAF EGTK 201705Z 2018/2103 27012KT 9999 FEW035
Wind
  • 270° at 12 KTS
Cloud Levels
  • Few at 3,500' AGL

Feb-20@
18:00 UTC

Feb-20 @ 18:00 UTC

Feb-20@
19:00 UTC

Feb-20 @ 19:00 UTC

PROB30 TEMPO 2018/2019 28015G25KT SHRA

Expired

Wind
  • 280° at 15 KTS
  • {Gusting to 25 KTS
Conditions
Rain